createdAt,value
2019-02-27T00:00:43.800Z,27.63
2019-02-27T00:03:10.842Z,27.53
2019-02-27T00:05:41.827Z,23.17
2019-02-27T00:08:10.980Z,30.53
2019-02-27T00:10:40.236Z,23.03
2019-02-27T00:13:09.419Z,27.17
2019-02-27T00:15:38.634Z,25.73
2019-02-27T00:18:07.805Z,27.27
2019-02-27T00:20:37.711Z,25.30
2019-02-27T00:23:07.007Z,25.77
2019-02-27T00:25:36.749Z,25.93
2019-02-27T00:28:05.971Z,26.57
2019-02-27T00:30:37.919Z,26.20
2019-02-27T00:33:06.406Z,23.07
2019-02-27T00:35:38.829Z,23.67
2019-02-27T00:38:06.492Z,22.77
2019-02-27T00:40:38.579Z,23.30
2019-02-27T00:43:06.734Z,26.87
2019-02-27T00:45:39.672Z,20.63
2019-02-27T00:48:07.015Z,24.53
2019-02-27T00:50:38.953Z,22.50
2019-02-27T00:53:07.132Z,27.20
2019-02-27T00:55:39.322Z,27.07
2019-02-27T00:58:07.267Z,27.33
2019-02-27T01:00:38.958Z,27.33
2019-02-27T01:03:07.512Z,24.43
2019-02-27T01:05:40.938Z,23.67
2019-02-27T01:08:07.730Z,24.13
2019-02-27T01:10:36.947Z,23.10
2019-02-27T01:13:06.160Z,23.90
2019-02-27T01:15:35.360Z,25.63
2019-02-27T01:18:04.693Z,25.10
2019-02-27T01:20:33.899Z,26.80
2019-02-27T01:23:03.145Z,24.77
2019-02-27T01:25:32.396Z,27.40
2019-02-27T01:28:01.706Z,25.67
2019-02-27T01:30:30.930Z,26.60
2019-02-27T01:33:03.974Z,25.33
2019-02-27T01:35:31.025Z,25.30
2019-02-27T01:38:00.256Z,25.83
2019-02-27T01:40:29.454Z,28.40
2019-02-27T01:42:58.647Z,26.13
2019-02-27T01:45:27.848Z,28.37
2019-02-27T01:47:57.062Z,23.77
2019-02-27T01:50:31.846Z,25.67
2019-02-27T01:53:01.204Z,29.73
2019-02-27T01:55:30.656Z,26.63
2019-02-27T01:57:59.854Z,25.43
2019-02-27T02:00:29.051Z,30.30
2019-02-27T02:02:58.293Z,25.20
2019-02-27T02:05:27.916Z,26.00
2019-02-27T02:07:57.388Z,28.50
2019-02-27T02:10:28.857Z,27.73
2019-02-27T02:13:03.607Z,28.90
2019-02-27T02:15:41.566Z,23.00
2019-02-27T02:18:22.634Z,20.20
2019-02-27T02:21:00.885Z,23.23
2019-02-27T02:23:37.276Z,23.83
2019-02-27T02:26:21.287Z,25.97
2019-02-27T02:29:09.701Z,21.03
2019-02-27T02:31:47.912Z,23.07
2019-02-27T02:34:25.760Z,23.50
2019-02-27T02:37:15.717Z,23.10
2019-02-27T02:39:56.908Z,21.30
2019-02-27T02:42:34.959Z,24.60
2019-02-27T02:45:16.086Z,24.10
2019-02-27T02:47:48.329Z,19.93
2019-02-27T02:50:55.088Z,25.87
2019-02-27T02:53:51.560Z,26.67
2019-02-27T02:56:38.481Z,24.73
2019-02-27T02:59:44.380Z,23.97
2019-02-27T03:02:39.541Z,26.07
2019-02-27T03:05:34.382Z,20.63
2019-02-27T03:08:19.875Z,22.33
2019-02-27T03:11:09.286Z,23.73
2019-02-27T03:13:53.031Z,26.70
2019-02-27T03:16:42.376Z,23.37
2019-02-27T03:19:17.545Z,22.13
2019-02-27T03:21:52.558Z,23.27
2019-02-27T03:24:42.991Z,24.23
2019-02-27T03:27:15.224Z,22.90
2019-02-27T03:30:03.921Z,25.50
2019-02-27T03:32:43.699Z,23.77
2019-02-27T03:35:54.344Z,22.03
2019-02-27T03:38:35.534Z,22.17
2019-02-27T03:41:10.597Z,22.63
2019-02-27T03:43:51.764Z,22.70
2019-02-27T03:46:32.731Z,24.53
2019-02-27T03:49:30.675Z,26.43
2019-02-27T03:52:14.851Z,25.70
2019-02-27T03:54:57.035Z,25.30
2019-02-27T03:57:41.788Z,26.97
2019-02-27T04:00:31.858Z,23.43
2019-02-27T04:03:04.124Z,22.60
2019-02-27T04:05:46.298Z,25.73
2019-02-27T04:08:18.719Z,22.27
2019-02-27T04:10:47.905Z,22.40
2019-02-27T04:13:17.113Z,25.03
2019-02-27T04:15:46.425Z,20.20
2019-02-27T04:18:14.491Z,22.30
2019-02-27T04:20:49.753Z,19.57
2019-02-27T04:23:14.514Z,21.03
2019-02-27T04:25:43.782Z,26.00
2019-02-27T04:28:12.992Z,23.43
2019-02-27T04:30:42.185Z,21.63
2019-02-27T04:33:11.375Z,19.10
2019-02-27T04:35:40.987Z,21.43
2019-02-27T04:38:10.184Z,22.97
2019-02-27T04:40:41.707Z,23.13
2019-02-27T04:43:10.378Z,23.03
2019-02-27T04:45:39.496Z,23.03
2019-02-27T04:48:08.714Z,25.40
2019-02-27T04:50:37.911Z,23.97
2019-02-27T04:53:07.108Z,26.10
2019-02-27T04:55:36.372Z,20.73
2019-02-27T04:58:08.578Z,17.63
2019-02-27T05:00:36.445Z,20.00
2019-02-27T05:03:05.772Z,21.57
2019-02-27T05:05:35.021Z,18.17
2019-02-27T05:08:04.271Z,18.50
2019-02-27T05:10:34.874Z,16.27
2019-02-27T05:13:04.075Z,24.67
2019-02-27T05:15:33.260Z,18.87
2019-02-27T05:18:02.460Z,18.13
2019-02-27T05:20:31.669Z,18.67
2019-02-27T05:23:00.996Z,19.50
2019-02-27T05:25:30.208Z,19.73
2019-02-27T05:28:01.569Z,16.80
2019-02-27T05:30:30.346Z,19.80
2019-02-27T05:33:02.306Z,16.47
2019-02-27T05:35:30.560Z,17.07
2019-02-27T05:37:59.819Z,17.37
2019-02-27T05:40:29.016Z,17.70
2019-02-27T05:42:58.224Z,18.80
2019-02-27T05:45:30.346Z,23.43
2019-02-27T05:47:58.284Z,16.57
2019-02-27T05:50:27.484Z,19.20
2019-02-27T05:52:56.654Z,18.30
2019-02-27T05:55:25.923Z,19.63
2019-02-27T05:57:55.141Z,20.60
2019-02-27T06:00:24.336Z,16.60
2019-02-27T06:02:53.533Z,17.63
2019-02-27T06:05:22.812Z,21.50
2019-02-27T06:07:52.035Z,15.87
2019-02-27T06:10:23.321Z,20.70
2019-02-27T06:12:52.165Z,19.60
2019-02-27T06:15:21.511Z,13.87
2019-02-27T06:17:50.680Z,15.27
2019-02-27T06:20:19.873Z,16.13
2019-02-27T06:22:49.110Z,15.90
2019-02-27T06:25:23.193Z,18.10
2019-02-27T06:27:49.751Z,16.13
2019-02-27T06:30:20.504Z,16.60
2019-02-27T06:32:49.699Z,17.90
2019-02-27T06:35:18.916Z,16.70
2019-02-27T06:37:50.491Z,16.07
2019-02-27T06:40:18.895Z,16.40
2019-02-27T06:42:48.086Z,14.80
2019-02-27T06:45:18.035Z,13.97
2019-02-27T06:47:47.248Z,21.57
2019-02-27T06:50:17.244Z,17.50
2019-02-27T06:52:46.629Z,16.03
2019-02-27T06:55:16.185Z,20.00
2019-02-27T06:57:45.493Z,16.20
2019-02-27T07:00:23.078Z,17.33
2019-02-27T07:02:55.200Z,15.50
2019-02-27T07:05:23.246Z,17.13
2019-02-27T07:07:52.578Z,17.37
2019-02-27T07:10:21.752Z,21.70
2019-02-27T07:12:54.424Z,23.30
2019-02-27T07:15:22.893Z,17.90
2019-02-27T07:17:52.166Z,16.90
2019-02-27T07:20:39.046Z,21.00
2019-02-27T07:23:08.249Z,25.00
2019-02-27T07:25:41.953Z,18.40
2019-02-27T07:28:09.213Z,17.63
2019-02-27T07:30:39.889Z,19.27
2019-02-27T07:33:13.715Z,19.27
2019-02-27T07:35:42.872Z,17.40
2019-02-27T07:38:12.146Z,15.53
2019-02-27T07:40:43.023Z,18.33
2019-02-27T07:43:12.261Z,18.73
2019-02-27T07:45:42.754Z,19.57
2019-02-27T07:48:12.339Z,20.10
2019-02-27T07:50:41.549Z,18.90
2019-02-27T07:53:10.910Z,18.97
2019-02-27T07:55:40.159Z,17.07
2019-02-27T07:58:09.438Z,16.97
2019-02-27T08:00:38.628Z,16.17
2019-02-27T08:03:09.853Z,13.77
2019-02-27T08:05:38.728Z,12.37
2019-02-27T08:08:07.919Z,12.47
2019-02-27T08:10:37.518Z,12.47
2019-02-27T08:13:06.789Z,15.63
2019-02-27T08:15:35.983Z,13.07
2019-02-27T08:18:05.270Z,13.73
2019-02-27T08:20:34.665Z,16.47
2019-02-27T08:23:03.862Z,16.77
2019-02-27T08:25:33.047Z,13.30
2019-02-27T08:28:02.263Z,14.60
2019-02-27T08:30:31.444Z,15.70
2019-02-27T08:33:00.710Z,15.67
2019-02-27T08:35:29.908Z,16.27
2019-02-27T08:38:02.503Z,15.07
2019-02-27T08:40:29.994Z,17.77
2019-02-27T08:42:59.195Z,15.93
2019-02-27T08:45:28.367Z,14.20
2019-02-27T08:47:57.566Z,15.27
2019-02-27T08:50:29.277Z,15.80
2019-02-27T08:52:58.335Z,14.93
2019-02-27T08:55:27.545Z,17.83
2019-02-27T08:57:57.173Z,15.80
2019-02-27T09:00:32.048Z,13.97
2019-02-27T09:03:02.843Z,19.03
2019-02-27T09:05:32.470Z,15.60
2019-02-27T09:08:01.647Z,26.60
2019-02-27T09:10:31.030Z,14.83
2019-02-27T09:13:05.261Z,14.53
2019-02-27T09:15:31.212Z,17.57
2019-02-27T09:18:01.809Z,21.40
2019-02-27T09:20:31.335Z,18.63
2019-02-27T09:23:00.513Z,17.83
2019-02-27T09:25:29.715Z,17.73
2019-02-27T09:27:58.886Z,18.47
2019-02-27T09:30:29.291Z,16.73
2019-02-27T09:32:59.035Z,21.53
2019-02-27T09:35:32.569Z,16.47
2019-02-27T09:37:59.147Z,19.40
2019-02-27T09:40:29.806Z,18.83
2019-02-27T09:42:59.069Z,21.47
2019-02-27T09:45:34.705Z,20.93
2019-02-27T09:48:04.823Z,21.93
2019-02-27T09:50:39.390Z,17.30
2019-02-27T09:53:08.608Z,17.17
2019-02-27T09:55:37.892Z,19.03
2019-02-27T09:58:11.024Z,20.40
2019-02-27T10:00:47.528Z,19.00
2019-02-27T10:03:20.213Z,16.77
2019-02-27T10:05:47.873Z,21.20
2019-02-27T10:08:17.160Z,22.10
2019-02-27T10:10:46.425Z,18.10
2019-02-27T10:13:15.679Z,21.83
2019-02-27T10:15:44.916Z,18.60
2019-02-27T10:18:18.045Z,22.43
2019-02-27T10:20:45.228Z,15.27
2019-02-27T10:23:14.439Z,21.97
2019-02-27T10:25:44.206Z,20.77
2019-02-27T10:28:13.376Z,19.10
2019-02-27T10:30:42.594Z,21.43
2019-02-27T10:33:11.933Z,17.40
2019-02-27T10:35:41.172Z,18.50
2019-02-27T10:38:10.380Z,18.73
2019-02-27T10:40:39.591Z,16.67
2019-02-27T10:43:08.717Z,18.77
2019-02-27T10:45:38.318Z,19.73
2019-02-27T10:48:07.514Z,17.67
2019-02-27T10:50:36.779Z,19.87
2019-02-27T10:53:06.062Z,22.33
2019-02-27T10:55:35.243Z,22.37
2019-02-27T10:58:04.528Z,17.40
2019-02-27T11:00:34.248Z,21.00
2019-02-27T11:03:03.857Z,16.13
2019-02-27T11:05:40.372Z,19.23
2019-02-27T11:08:09.621Z,23.70
2019-02-27T11:10:38.987Z,18.87
2019-02-27T11:13:08.196Z,18.00
2019-02-27T11:15:41.092Z,18.07
2019-02-27T11:18:08.458Z,18.03
2019-02-27T11:20:37.676Z,17.07
2019-02-27T11:23:07.706Z,21.33
2019-02-27T11:25:37.101Z,21.87
2019-02-27T11:28:06.423Z,21.63
2019-02-27T11:30:40.279Z,21.07
2019-02-27T11:33:09.837Z,21.67
2019-02-27T11:35:39.387Z,21.17
2019-02-27T11:38:08.593Z,23.30
2019-02-27T11:40:41.761Z,26.97
2019-02-27T11:43:08.701Z,26.27
2019-02-27T11:45:37.894Z,23.83
2019-02-27T11:48:07.110Z,24.17
2019-02-27T11:50:36.296Z,20.93
2019-02-27T11:53:05.498Z,19.07
2019-02-27T11:55:34.754Z,21.57
2019-02-27T11:58:05.554Z,23.23
2019-02-27T12:00:35.074Z,21.87
2019-02-27T12:03:04.449Z,20.33
2019-02-27T12:05:34.429Z,22.43
2019-02-27T12:08:03.772Z,24.13
2019-02-27T12:10:33.240Z,23.37
2019-02-27T12:13:02.419Z,21.47
2019-02-27T12:15:31.601Z,19.23
2019-02-27T12:18:01.700Z,20.47
2019-02-27T12:20:31.189Z,22.13
2019-02-27T12:23:00.395Z,26.53
2019-02-27T12:25:30.210Z,24.43
2019-02-27T12:28:00.698Z,23.87
2019-02-27T12:30:31.825Z,23.00
2019-02-27T12:33:01.015Z,25.87
2019-02-27T12:35:34.483Z,21.20
2019-02-27T12:38:08.210Z,26.87
2019-02-27T12:40:35.798Z,20.90
2019-02-27T12:43:05.161Z,25.50
2019-02-27T12:45:34.547Z,23.47
2019-02-27T12:48:03.751Z,23.87
2019-02-27T12:50:34.078Z,25.27
2019-02-27T12:53:03.278Z,24.27
2019-02-27T12:55:35.483Z,25.63
2019-02-27T12:58:03.362Z,23.83
2019-02-27T13:00:34.321Z,26.07
2019-02-27T13:03:08.200Z,25.87
2019-02-27T13:05:34.508Z,22.47
2019-02-27T13:08:03.739Z,24.77
2019-02-27T13:10:34.030Z,27.20
2019-02-27T13:13:03.654Z,25.13
2019-02-27T13:15:32.851Z,24.23
2019-02-27T13:18:02.184Z,26.10
2019-02-27T13:20:32.732Z,27.43
2019-02-27T13:23:05.095Z,22.13
2019-02-27T13:25:32.790Z,23.57
2019-02-27T13:28:01.992Z,24.80
2019-02-27T13:30:31.181Z,25.50
2019-02-27T13:33:01.167Z,25.23
2019-02-27T13:35:31.577Z,24.30
2019-02-27T13:38:01.725Z,29.67
2019-02-27T13:40:35.626Z,26.30
2019-02-27T13:43:04.665Z,26.87
2019-02-27T13:45:33.852Z,24.63
2019-02-27T13:48:05.837Z,28.87
2019-02-27T13:50:33.999Z,27.70
2019-02-27T13:53:03.243Z,28.83
2019-02-27T13:55:32.457Z,21.83
2019-02-27T13:58:03.774Z,25.73
2019-02-27T14:00:34.418Z,24.53
2019-02-27T14:03:03.687Z,27.67
2019-02-27T14:05:36.011Z,29.20
2019-02-27T14:08:04.278Z,29.03
2019-02-27T14:10:34.242Z,25.77
2019-02-27T14:13:08.902Z,26.87
2019-02-27T14:15:35.130Z,24.17
2019-02-27T14:18:04.414Z,24.13
2019-02-27T14:20:33.666Z,26.10
2019-02-27T14:23:02.851Z,25.90
2019-02-27T14:25:35.018Z,25.63
2019-02-27T14:28:04.656Z,26.07
2019-02-27T14:30:45.701Z,26.03
2019-02-27T14:33:32.857Z,24.37
2019-02-27T14:36:02.219Z,29.43
2019-02-27T14:38:31.395Z,28.20
2019-02-27T14:41:01.222Z,25.50
2019-02-27T14:43:30.487Z,26.20
2019-02-27T14:45:59.735Z,28.10
2019-02-27T14:48:28.939Z,26.80
2019-02-27T14:50:58.176Z,27.30
2019-02-27T14:53:27.366Z,24.40
2019-02-27T14:55:56.546Z,31.67
2019-02-27T14:58:25.758Z,28.47
2019-02-27T15:00:55.088Z,26.13
2019-02-27T15:03:29.218Z,31.37
2019-02-27T15:05:55.217Z,25.73
2019-02-27T15:08:25.142Z,30.90
2019-02-27T15:10:55.078Z,31.57
2019-02-27T15:13:28.150Z,36.13
2019-02-27T15:15:55.182Z,35.80
2019-02-27T15:18:24.370Z,37.37
2019-02-27T15:20:53.602Z,31.70
2019-02-27T15:23:24.575Z,33.00
2019-02-27T15:25:53.672Z,37.57
2019-02-27T15:28:22.873Z,34.87
2019-02-27T15:30:52.129Z,35.63
2019-02-27T15:33:21.313Z,41.63
2019-02-27T15:35:55.052Z,36.30
2019-02-27T15:38:21.412Z,38.10
2019-02-27T15:40:50.602Z,34.30
2019-02-27T15:43:20.753Z,39.67
2019-02-27T15:45:49.934Z,40.13
2019-02-27T15:48:19.154Z,39.93
2019-02-27T15:50:48.519Z,38.67
2019-02-27T15:53:17.703Z,37.43
2019-02-27T15:55:46.902Z,37.07
2019-02-27T15:58:16.088Z,34.53
2019-02-27T16:00:45.276Z,36.90
2019-02-27T16:03:14.483Z,40.30
2019-02-27T16:05:45.564Z,37.13
2019-02-27T16:08:15.348Z,38.93
2019-02-27T16:10:54.325Z,39.03
2019-02-27T16:13:15.685Z,41.63
2019-02-27T16:15:44.909Z,41.50
2019-02-27T16:18:14.107Z,37.87
2019-02-27T16:20:43.295Z,41.10
2019-02-27T16:23:12.490Z,44.30
2019-02-27T16:25:41.700Z,40.37
2019-02-27T16:28:12.064Z,41.63
2019-02-27T16:30:41.790Z,40.83
2019-02-27T16:33:11.086Z,40.93
2019-02-27T16:35:41.992Z,41.77
2019-02-27T16:38:13.077Z,46.17
2019-02-27T16:40:42.083Z,43.47
2019-02-27T16:43:13.568Z,44.03
2019-02-27T16:45:42.178Z,39.83
2019-02-27T16:48:11.463Z,41.60
2019-02-27T16:50:40.579Z,46.63
2019-02-27T16:53:09.767Z,44.77
2019-02-27T16:55:39.639Z,48.17
2019-02-27T16:58:08.850Z,41.27
2019-02-27T17:00:41.113Z,47.47
2019-02-27T17:03:13.457Z,43.93
2019-02-27T17:05:43.047Z,42.47
2019-02-27T17:08:12.179Z,46.13
2019-02-27T17:10:41.434Z,45.17
2019-02-27T17:13:14.677Z,45.17
2019-02-27T17:15:41.567Z,42.97
2019-02-27T17:18:12.707Z,40.27
2019-02-27T17:20:46.058Z,48.07
2019-02-27T17:23:12.571Z,38.90
2019-02-27T17:25:41.736Z,42.60
2019-02-27T17:28:10.981Z,42.00
2019-02-27T17:30:40.141Z,44.60
2019-02-27T17:33:09.391Z,42.67
2019-02-27T17:35:38.578Z,42.47
2019-02-27T17:38:07.769Z,43.77
2019-02-27T17:40:37.894Z,44.83
2019-02-27T17:43:07.235Z,46.80
2019-02-27T17:45:36.471Z,44.43
2019-02-27T17:48:05.692Z,48.47
2019-02-27T17:50:34.856Z,46.20
2019-02-27T17:53:04.141Z,48.67
2019-02-27T17:55:33.384Z,47.77
2019-02-27T17:58:02.758Z,43.97
2019-02-27T18:00:50.089Z,47.97
2019-02-27T18:03:16.953Z,48.67
2019-02-27T18:05:46.213Z,46.33
2019-02-27T18:08:16.308Z,49.33
2019-02-27T18:10:46.498Z,50.83
2019-02-27T18:13:17.598Z,48.80
2019-02-27T18:15:46.822Z,47.83
2019-02-27T18:18:16.228Z,44.87
2019-02-27T18:20:45.423Z,47.67
2019-02-27T18:23:14.629Z,46.30
2019-02-27T18:25:43.851Z,47.47
2019-02-27T18:28:13.040Z,48.53
2019-02-27T18:30:43.425Z,45.70
2019-02-27T18:33:14.253Z,45.90
2019-02-27T18:35:43.528Z,45.67
2019-02-27T18:38:12.721Z,46.97
2019-02-27T18:40:42.781Z,47.17
2019-02-27T18:43:12.102Z,46.23
2019-02-27T18:45:41.285Z,45.87
2019-02-27T18:48:10.792Z,48.47
2019-02-27T18:50:40.080Z,54.20
2019-02-27T18:53:12.913Z,51.50
2019-02-27T18:55:40.182Z,52.80
2019-02-27T18:58:09.311Z,49.60
2019-02-27T19:00:38.568Z,48.63
2019-02-27T19:03:10.599Z,47.47
2019-02-27T19:05:42.056Z,50.00
2019-02-27T19:08:10.860Z,48.63
2019-02-27T19:10:42.482Z,50.80
2019-02-27T19:13:11.164Z,45.77
2019-02-27T19:15:45.467Z,57.17
2019-02-27T19:18:11.518Z,52.40
2019-02-27T19:20:46.589Z,51.77
2019-02-27T19:23:17.693Z,50.23
2019-02-27T19:25:47.081Z,48.77
2019-02-27T19:28:16.259Z,51.13
2019-02-27T19:30:45.595Z,50.63
2019-02-27T19:33:14.824Z,51.83
2019-02-27T19:35:44.156Z,54.20
2019-02-27T19:38:13.828Z,53.33
2019-02-27T19:40:43.324Z,51.73
2019-02-27T19:43:12.691Z,55.00
2019-02-27T19:45:42.402Z,57.90
2019-02-27T19:48:11.943Z,56.83
2019-02-27T19:50:45.208Z,56.70
2019-02-27T19:53:12.194Z,64.57
2019-02-27T19:55:41.587Z,59.73
2019-02-27T19:58:11.010Z,58.50
2019-02-27T20:00:47.935Z,59.53
2019-02-27T20:03:11.342Z,58.67
2019-02-27T20:05:40.632Z,59.93
2019-02-27T20:08:11.054Z,58.60
2019-02-27T20:10:40.559Z,52.37
2019-02-27T20:13:10.136Z,64.00
2019-02-27T20:15:39.346Z,62.07
2019-02-27T20:18:09.106Z,60.53
2019-02-27T20:20:41.030Z,54.67
2019-02-27T20:23:09.450Z,55.67
2019-02-27T20:25:43.177Z,56.70
2019-02-27T20:28:09.610Z,55.43
2019-02-27T20:30:39.143Z,54.63
2019-02-27T20:33:08.336Z,50.63
2019-02-27T20:35:37.581Z,54.73
2019-02-27T20:38:06.938Z,50.90
2019-02-27T20:40:36.134Z,56.67
2019-02-27T20:43:05.433Z,57.03
2019-02-27T20:45:34.717Z,49.90
2019-02-27T20:48:03.898Z,51.63
2019-02-27T20:50:41.672Z,51.80
2019-02-27T20:53:12.644Z,48.80
2019-02-27T20:55:42.001Z,46.93
2019-02-27T20:58:16.367Z,49.57
2019-02-27T21:00:43.391Z,50.03
2019-02-27T21:03:12.581Z,48.80
2019-02-27T21:05:42.042Z,50.40
2019-02-27T21:08:11.273Z,48.30
2019-02-27T21:10:40.458Z,45.87
2019-02-27T21:13:15.476Z,49.90
2019-02-27T21:15:40.595Z,44.53
2019-02-27T21:18:10.063Z,46.80
2019-02-27T21:20:39.256Z,48.00
2019-02-27T21:23:09.261Z,44.97
2019-02-27T21:25:38.613Z,45.67
2019-02-27T21:28:07.980Z,41.67
2019-02-27T21:30:37.182Z,50.23
2019-02-27T21:33:08.317Z,45.33
2019-02-27T21:35:37.418Z,46.90
2019-02-27T21:38:06.597Z,46.40
2019-02-27T21:40:36.148Z,48.00
2019-02-27T21:43:06.290Z,47.17
2019-02-27T21:45:37.571Z,44.13
2019-02-27T21:48:06.459Z,48.17
2019-02-27T21:50:39.649Z,43.73
2019-02-27T21:53:06.534Z,49.00
2019-02-27T21:55:35.761Z,44.80
2019-02-27T21:58:04.957Z,48.03
2019-02-27T22:00:34.144Z,49.80
2019-02-27T22:03:04.890Z,50.57
2019-02-27T22:05:42.614Z,49.63
2019-02-27T22:08:06.147Z,48.63
2019-02-27T22:10:35.517Z,48.00
2019-02-27T22:13:09.382Z,47.03
2019-02-27T22:15:35.693Z,48.67
2019-02-27T22:18:05.073Z,49.43
2019-02-27T22:20:34.248Z,47.67
2019-02-27T22:23:03.485Z,52.53
2019-02-27T22:25:32.629Z,44.30
2019-02-27T22:28:01.825Z,53.80
2019-02-27T22:30:31.721Z,47.90
2019-02-27T22:33:01.700Z,49.30
2019-02-27T22:35:34.436Z,49.93
2019-02-27T22:38:02.142Z,47.60
2019-02-27T22:40:31.337Z,51.73
2019-02-27T22:43:00.524Z,46.33
2019-02-27T22:45:29.714Z,49.27
2019-02-27T22:47:59.018Z,54.33
2019-02-27T22:50:28.225Z,49.97
2019-02-27T22:52:57.425Z,49.70
2019-02-27T22:55:45.808Z,46.43
2019-02-27T22:58:33.492Z,45.70
2019-02-27T23:01:10.514Z,51.47
2019-02-27T23:03:45.212Z,51.30
2019-02-27T23:06:14.409Z,53.87
2019-02-27T23:08:43.928Z,51.70
2019-02-27T23:11:13.411Z,52.87
2019-02-27T23:13:47.448Z,50.33
2019-02-27T23:16:18.418Z,51.50
2019-02-27T23:18:47.771Z,61.57
2019-02-27T23:21:16.971Z,55.43
2019-02-27T23:23:47.778Z,51.03
2019-02-27T23:26:19.822Z,54.00
2019-02-27T23:28:47.928Z,47.53
2019-02-27T23:31:22.212Z,53.27
2019-02-27T23:33:48.051Z,54.40
2019-02-27T23:36:17.249Z,57.83
2019-02-27T23:38:46.439Z,57.33
2019-02-27T23:41:15.710Z,51.27
2019-02-27T23:43:44.974Z,51.80
2019-02-27T23:46:15.675Z,55.33
2019-02-27T23:48:45.058Z,57.13
2019-02-27T23:51:16.796Z,51.70
2019-02-27T23:53:45.142Z,53.90
2019-02-27T23:56:19.354Z,51.53
2019-02-27T23:58:45.254Z,54.70
